Atlantic Aquarius — VRDX6 — position and weather

sailwx.info

Track history (hours):
 
Tides and Currents Weather Stations Pressure Air Temp Water Temp Dewpoint Dewpoint Depression Visibility Wind Speed Wind Dir Waves Ship Positions

Atlantic Aquarius

Last reported at 2015-Jan-30 22:05 UTC. Time now 2015-Mar-27 10:17 UTC.
Position N 01°53' E 102°24'.
Warning: this ship's position is 55 days out of date.

Length 183 m; draft 8.2 m.

Type: Tanker. MMSI: 477071400.

Date/timePositionNaut miles runAvg speedWind from/ knotsBaromVisibWave heightAir tempDewpointWater temp
2015-Jan-30 22:05N 01°53' E 102°24'713.9
2015-Jan-30 21:33N 01°50' E 102°31'1414.3
2015-Jan-30 20:33N 01°45' E 102°44'6412.6
2015-Jan-30 15:28N 01°13' E 103°40'1 0.0
2015-Jan-29 16:32N 01°13' E 103°40'9 4.3
2015-Jan-29 14:30N 01°11' E 103°49'7 7.1
2015-Jan-29 13:32N 01°14' E 103°55'9 8.8
2015-Jan-29 12:33N 01°16' E 104°03'10 8.7
2015-Jan-29 11:24N 01°17' E 104°13'  
2015-Jan-25 04:30N 22°06' E 114°24'14 9.9
2015-Jan-25 03:07N 22°12' E 114°10'6 8.7
2015-Jan-25 02:25N 22°16' E 114°06'4 0.1
2015-Jan-23 16:26N 22°20' E 114°05'13 6.6
2015-Jan-23 14:31N 22°08' E 114°09'1 0.1
2015-Jan-23 01:33N 22°09' E 114°09'1212.1
2015-Jan-23 00:33N 22°09' E 114°22'8 7.4
2015-Jan-22 23:32N 22°01' E 114°24'  
Track history (hours):
 
Tides and Currents Weather Stations Pressure Air Temp Water Temp Dewpoint Dewpoint Depression Visibility Wind Speed Wind Dir Waves Ship Positions

Atlantic Aquarius

Last reported at 2015-Jan-30 22:05 UTC. Time now 2015-Mar-27 10:17 UTC.
Position N 01°53' E 102°24'.
Warning: this ship's position is 55 days out of date.

Length 183 m; draft 8.2 m.

Type: Tanker. MMSI: 477071400.

Date/timePositionNaut miles runAvg speedWind from/ knotsBaromVisibWave heightAir tempDewpointWater temp
2015-Jan-30 22:05N 01°53' E 102°24'713.9
2015-Jan-30 21:33N 01°50' E 102°31'1414.3
2015-Jan-30 20:33N 01°45' E 102°44'6412.6
2015-Jan-30 15:28N 01°13' E 103°40'1 0.0
2015-Jan-29 16:32N 01°13' E 103°40'9 4.3
2015-Jan-29 14:30N 01°11' E 103°49'7 7.1
2015-Jan-29 13:32N 01°14' E 103°55'9 8.8
2015-Jan-29 12:33N 01°16' E 104°03'10 8.7
2015-Jan-29 11:24N 01°17' E 104°13'  
2015-Jan-25 04:30N 22°06' E 114°24'14 9.9
2015-Jan-25 03:07N 22°12' E 114°10'6 8.7
2015-Jan-25 02:25N 22°16' E 114°06'4 0.1
2015-Jan-23 16:26N 22°20' E 114°05'13 6.6
2015-Jan-23 14:31N 22°08' E 114°09'1 0.1
2015-Jan-23 01:33N 22°09' E 114°09'1212.1
2015-Jan-23 00:33N 22°09' E 114°22'8 7.4
2015-Jan-22 23:32N 22°01' E 114°24'  

Dump ship's entire track history